sensor_id;sensor_type;location;lat;lon;timestamp;pressure;altitude;pressure_sealevel;temperature
72054;BMP280;59918;51.280;7.950;2022-07-18T00:01:16;98886.25;;;14.47
72054;BMP280;59918;51.280;7.950;2022-07-18T00:03:43;98894.44;;;14.44
72054;BMP280;59918;51.280;7.950;2022-07-18T00:06:08;98883.50;;;14.42
72054;BMP280;59918;51.280;7.950;2022-07-18T00:08:33;98887.06;;;14.41
72054;BMP280;59918;51.280;7.950;2022-07-18T00:10:59;98884.09;;;14.37
72054;BMP280;59918;51.280;7.950;2022-07-18T00:13:24;98872.34;;;14.35
72054;BMP280;59918;51.280;7.950;2022-07-18T00:15:49;98873.97;;;14.29
72054;BMP280;59918;51.280;7.950;2022-07-18T00:20:40;98875.38;;;14.25
72054;BMP280;59918;51.280;7.950;2022-07-18T00:23:05;98883.31;;;14.24
72054;BMP280;59918;51.280;7.950;2022-07-18T00:25:30;98875.94;;;14.21
72054;BMP280;59918;51.280;7.950;2022-07-18T00:27:55;98876.75;;;14.15
72054;BMP280;59918;51.280;7.950;2022-07-18T00:30:21;98881.72;;;14.17
72054;BMP280;59918;51.280;7.950;2022-07-18T00:32:46;98872.59;;;14.08
72054;BMP280;59918;51.280;7.950;2022-07-18T00:35:11;98874.00;;;14.04
72054;BMP280;59918;51.280;7.950;2022-07-18T00:37:36;98872.97;;;13.98
72054;BMP280;59918;51.280;7.950;2022-07-18T00:40:02;98869.38;;;13.93
72054;BMP280;59918;51.280;7.950;2022-07-18T00:42:27;98876.53;;;13.91
72054;BMP280;59918;51.280;7.950;2022-07-18T00:44:55;98859.84;;;13.87
72054;BMP280;59918;51.280;7.950;2022-07-18T00:47:21;98865.00;;;13.87
72054;BMP280;59918;51.280;7.950;2022-07-18T00:49:46;98855.47;;;13.81
72054;BMP280;59918;51.280;7.950;2022-07-18T00:52:12;98864.41;;;13.79
72054;BMP280;59918;51.280;7.950;2022-07-18T00:54:38;98855.47;;;13.75
72054;BMP280;59918;51.280;7.950;2022-07-18T00:57:03;98859.44;;;13.71
72054;BMP280;59918;51.280;7.950;2022-07-18T00:59:29;98847.69;;;13.62
72054;BMP280;59918;51.280;7.950;2022-07-18T01:01:54;98852.25;;;13.60
72054;BMP280;59918;51.280;7.950;2022-07-18T01:04:22;98857.63;;;13.58
72054;BMP280;59918;51.280;7.950;2022-07-18T01:06:49;98856.03;;;13.57
72054;BMP280;59918;51.280;7.950;2022-07-18T01:09:16;98859.41;;;13.51
72054;BMP280;59918;51.280;7.950;2022-07-18T01:11:43;98839.13;;;13.42
72054;BMP280;59918;51.280;7.950;2022-07-18T01:14:09;98842.50;;;13.43
72054;BMP280;59918;51.280;7.950;2022-07-18T01:16:35;98851.25;;;13.42
72054;BMP280;59918;51.280;7.950;2022-07-18T01:19:00;98856.19;;;13.37
72054;BMP280;59918;51.280;7.950;2022-07-18T01:21:26;98852.22;;;13.34
72054;BMP280;59918;51.280;7.950;2022-07-18T01:23:51;98850.84;;;13.32
72054;BMP280;59918;51.280;7.950;2022-07-18T01:26:17;98844.28;;;13.29
72054;BMP280;59918;51.280;7.950;2022-07-18T01:28:43;98855.00;;;13.26
72054;BMP280;59918;51.280;7.950;2022-07-18T01:31:08;98850.63;;;13.20
72054;BMP280;59918;51.280;7.950;2022-07-18T01:33:37;98860.94;;;13.20
72054;BMP280;59918;51.280;7.950;2022-07-18T01:36:03;98851.00;;;13.17
72054;BMP280;59918;51.280;7.950;2022-07-18T01:38:30;98847.41;;;13.12
72054;BMP280;59918;51.280;7.950;2022-07-18T01:40:57;98855.53;;;13.09
72054;BMP280;59918;51.280;7.950;2022-07-18T01:43:24;98850.97;;;13.05
72054;BMP280;59918;51.280;7.950;2022-07-18T01:45:49;98845.19;;;12.96
72054;BMP280;59918;51.280;7.950;2022-07-18T01:48:15;98855.31;;;12.98
72054;BMP280;59918;51.280;7.950;2022-07-18T01:50:40;98851.91;;;12.91
72054;BMP280;59918;51.280;7.950;2022-07-18T01:53:05;98845.91;;;12.84
72054;BMP280;59918;51.280;7.950;2022-07-18T01:55:31;98853.88;;;12.82
72054;BMP280;59918;51.280;7.950;2022-07-18T01:57:56;98848.72;;;12.82
72054;BMP280;59918;51.280;7.950;2022-07-18T02:00:21;98856.66;;;12.81
72054;BMP280;59918;51.280;7.950;2022-07-18T02:02:46;98863.16;;;12.77
72054;BMP280;59918;51.280;7.950;2022-07-18T02:05:12;98863.78;;;12.79
72054;BMP280;59918;51.280;7.950;2022-07-18T02:07:40;98861.00;;;12.80
72054;BMP280;59918;51.280;7.950;2022-07-18T02:10:11;98867.94;;;12.80
72054;BMP280;59918;51.280;7.950;2022-07-18T02:12:37;98857.84;;;12.78
72054;BMP280;59918;51.280;7.950;2022-07-18T02:15:04;98854.41;;;12.78
72054;BMP280;59918;51.280;7.950;2022-07-18T02:17:30;98852.81;;;12.71
72054;BMP280;59918;51.280;7.950;2022-07-18T02:19:55;98856.34;;;12.70
72054;BMP280;59918;51.280;7.950;2022-07-18T02:22:20;98863.50;;;12.68
72054;BMP280;59918;51.280;7.950;2022-07-18T02:24:46;98853.75;;;12.63
72054;BMP280;59918;51.280;7.950;2022-07-18T02:27:11;98849.56;;;12.62
72054;BMP280;59918;51.280;7.950;2022-07-18T02:29:37;98847.56;;;12.58
72054;BMP280;59918;51.280;7.950;2022-07-18T02:32:02;98844.38;;;12.56
72054;BMP280;59918;51.280;7.950;2022-07-18T02:34:28;98846.34;;;12.54
72054;BMP280;59918;51.280;7.950;2022-07-18T02:36:53;98847.53;;;12.51
72054;BMP280;59918;51.280;7.950;2022-07-18T02:39:18;98839.56;;;12.46
72054;BMP280;59918;51.280;7.950;2022-07-18T02:41:44;98846.34;;;12.47
72054;BMP280;59918;51.280;7.950;2022-07-18T02:44:09;98841.97;;;12.48
72054;BMP280;59918;51.280;7.950;2022-07-18T02:46:34;98840.34;;;12.47
72054;BMP280;59918;51.280;7.950;2022-07-18T02:51:25;98841.13;;;12.41
72054;BMP280;59918;51.280;7.950;2022-07-18T02:53:50;98843.69;;;12.41
72054;BMP280;59918;51.280;7.950;2022-07-18T02:56:15;98837.13;;;12.38
72054;BMP280;59918;51.280;7.950;2022-07-18T02:58:40;98843.91;;;12.39
72054;BMP280;59918;51.280;7.950;2022-07-18T03:01:06;98840.72;;;12.38
72054;BMP280;59918;51.280;7.950;2022-07-18T03:03:31;98839.13;;;12.37
72054;BMP280;59918;51.280;7.950;2022-07-18T03:05:56;98834.34;;;12.34
72054;BMP280;59918;51.280;7.950;2022-07-18T03:08:21;98835.50;;;12.31
72054;BMP280;59918;51.280;7.950;2022-07-18T03:10:47;98833.75;;;12.32
72054;BMP280;59918;51.280;7.950;2022-07-18T03:13:12;98840.88;;;12.30
72054;BMP280;59918;51.280;7.950;2022-07-18T03:15:40;98843.84;;;12.33
72054;BMP280;59918;51.280;7.950;2022-07-18T03:18:05;98831.53;;;12.29
72054;BMP280;59918;51.280;7.950;2022-07-18T03:20:31;98833.13;;;12.30
72054;BMP280;59918;51.280;7.950;2022-07-18T03:22:56;98827.75;;;12.25
72054;BMP280;59918;51.280;7.950;2022-07-18T03:25:22;98835.09;;;12.28
72054;BMP280;59918;51.280;7.950;2022-07-18T03:27:47;98839.44;;;12.27
72054;BMP280;59918;51.280;7.950;2022-07-18T03:30:12;98834.69;;;12.24
72054;BMP280;59918;51.280;7.950;2022-07-18T03:32:38;98831.94;;;12.26
72054;BMP280;59918;51.280;7.950;2022-07-18T03:35:03;98833.91;;;12.24
72054;BMP280;59918;51.280;7.950;2022-07-18T03:37:32;98835.28;;;12.26
72054;BMP280;59918;51.280;7.950;2022-07-18T03:39:57;98823.16;;;12.20
72054;BMP280;59918;51.280;7.950;2022-07-18T03:42:22;98828.31;;;12.20
72054;BMP280;59918;51.280;7.950;2022-07-18T03:44:48;98822.38;;;12.20
72054;BMP280;59918;51.280;7.950;2022-07-18T03:47:13;98827.53;;;12.20
72054;BMP280;59918;51.280;7.950;2022-07-18T03:49:38;98830.91;;;12.20
72054;BMP280;59918;51.280;7.950;2022-07-18T03:52:04;98818.78;;;12.21
72054;BMP280;59918;51.280;7.950;2022-07-18T03:54:29;98828.75;;;12.24
72054;BMP280;59918;51.280;7.950;2022-07-18T03:56:54;98826.53;;;12.21
72054;BMP280;59918;51.280;7.950;2022-07-18T03:59:19;98839.06;;;12.24
72054;BMP280;59918;51.280;7.950;2022-07-18T04:01:45;98840.22;;;12.21
72054;BMP280;59918;51.280;7.950;2022-07-18T04:04:10;98834.88;;;12.23
72054;BMP280;59918;51.280;7.950;2022-07-18T04:06:35;98838.22;;;12.23
72054;BMP280;59918;51.280;7.950;2022-07-18T04:09:00;98834.88;;;12.23
72054;BMP280;59918;51.280;7.950;2022-07-18T04:11:26;98836.25;;;12.25
72054;BMP280;59918;51.280;7.950;2022-07-18T04:13:52;98838.28;;;12.30
72054;BMP280;59918;51.280;7.950;2022-07-18T04:16:17;98835.13;;;12.34
72054;BMP280;59918;51.280;7.950;2022-07-18T04:18:43;98828.19;;;12.35
72054;BMP280;59918;51.280;7.950;2022-07-18T04:21:10;98846.50;;;12.39
72054;BMP280;59918;51.280;7.950;2022-07-18T04:23:35;98837.75;;;12.40
72054;BMP280;59918;51.280;7.950;2022-07-18T04:26:01;98849.88;;;12.46
72054;BMP280;59918;51.280;7.950;2022-07-18T04:28:26;98846.13;;;12.49
72054;BMP280;59918;51.280;7.950;2022-07-18T04:30:53;98838.81;;;12.52
72054;BMP280;59918;51.280;7.950;2022-07-18T04:33:19;98840.00;;;12.56
72054;BMP280;59918;51.280;7.950;2022-07-18T04:35:44;98838.03;;;12.58
72054;BMP280;59918;51.280;7.950;2022-07-18T04:38:12;98845.63;;;12.66
72054;BMP280;59918;51.280;7.950;2022-07-18T04:40:37;98840.88;;;12.70
72054;BMP280;59918;51.280;7.950;2022-07-18T04:43:05;98843.28;;;12.77
72054;BMP280;59918;51.280;7.950;2022-07-18T04:45:34;98830.81;;;12.81
72054;BMP280;59918;51.280;7.950;2022-07-18T04:48:01;98831.84;;;12.86
72054;BMP280;59918;51.280;7.950;2022-07-18T04:50:27;98832.22;;;12.90
72054;BMP280;59918;51.280;7.950;2022-07-18T04:52:52;98840.63;;;12.98
72054;BMP280;59918;51.280;7.950;2022-07-18T04:55:20;98832.88;;;13.05
72054;BMP280;59918;51.280;7.950;2022-07-18T04:57:45;98838.06;;;13.11
72054;BMP280;59918;51.280;7.950;2022-07-18T05:00:13;98832.91;;;13.17
72054;BMP280;59918;51.280;7.950;2022-07-18T05:02:43;98830.13;;;13.25
72054;BMP280;59918;51.280;7.950;2022-07-18T05:05:09;98835.34;;;13.32
72054;BMP280;59918;51.280;7.950;2022-07-18T05:07:35;98829.19;;;13.39
72054;BMP280;59918;51.280;7.950;2022-07-18T05:10:02;98826.00;;;13.44
72054;BMP280;59918;51.280;7.950;2022-07-18T05:12:28;98824.63;;;13.54
72054;BMP280;59918;51.280;7.950;2022-07-18T05:14:55;98825.03;;;13.64
72054;BMP280;59918;51.280;7.950;2022-07-18T05:17:21;98831.97;;;13.76
72054;BMP280;59918;51.280;7.950;2022-07-18T05:19:46;98822.25;;;13.85
72054;BMP280;59918;51.280;7.950;2022-07-18T05:22:11;98823.25;;;13.96
72054;BMP280;59918;51.280;7.950;2022-07-18T05:24:36;98821.84;;;14.07
72054;BMP280;59918;51.280;7.950;2022-07-18T05:27:04;98829.22;;;14.16
72054;BMP280;59918;51.280;7.950;2022-07-18T05:29:29;98828.56;;;14.27
72054;BMP280;59918;51.280;7.950;2022-07-18T05:31:57;98829.97;;;14.36
72054;BMP280;59918;51.280;7.950;2022-07-18T05:34:23;98817.41;;;14.39
72054;BMP280;59918;51.280;7.950;2022-07-18T05:36:48;98824.38;;;14.45
72054;BMP280;59918;51.280;7.950;2022-07-18T05:39:13;98828.53;;;14.53
72054;BMP280;59918;51.280;7.950;2022-07-18T05:44:24;98828.25;;;14.73
72054;BMP280;59918;51.280;7.950;2022-07-18T05:46:49;98828.00;;;14.81
72054;BMP280;59918;51.280;7.950;2022-07-18T05:49:15;98818.97;;;14.96
72054;BMP280;59918;51.280;7.950;2022-07-18T05:51:41;98817.50;;;15.07
72054;BMP280;59918;51.280;7.950;2022-07-18T05:56:31;98813.03;;;15.33
72054;BMP280;59918;51.280;7.950;2022-07-18T05:58:57;98816.72;;;15.43
72054;BMP280;59918;51.280;7.950;2022-07-18T06:01:22;98815.03;;;15.55
72054;BMP280;59918;51.280;7.950;2022-07-18T06:03:47;98807.22;;;15.62
72054;BMP280;59918;51.280;7.950;2022-07-18T06:06:13;98802.97;;;15.67
72054;BMP280;59918;51.280;7.950;2022-07-18T06:08:39;98808.78;;;15.87
72054;BMP280;59918;51.280;7.950;2022-07-18T06:11:04;98809.03;;;16.03
72054;BMP280;59918;51.280;7.950;2022-07-18T06:13:30;98810.91;;;16.20
72054;BMP280;59918;51.280;7.950;2022-07-18T06:15:55;98811.06;;;16.43
72054;BMP280;59918;51.280;7.950;2022-07-18T06:18:21;98784.63;;;16.64
72054;BMP280;59918;51.280;7.950;2022-07-18T06:20:46;98798.09;;;16.90
72054;BMP280;59918;51.280;7.950;2022-07-18T06:23:11;98790.63;;;17.11
72054;BMP280;59918;51.280;7.950;2022-07-18T06:25:36;98777.34;;;17.30
72054;BMP280;59918;51.280;7.950;2022-07-18T06:28:02;98767.91;;;17.58
72054;BMP280;59918;51.280;7.950;2022-07-18T06:30:27;98776.19;;;17.90
72054;BMP280;59918;51.280;7.950;2022-07-18T06:32:52;98764.75;;;18.25
72054;BMP280;59918;51.280;7.950;2022-07-18T06:35:17;98754.13;;;18.65
72054;BMP280;59918;51.280;7.950;2022-07-18T06:37:43;98760.47;;;18.97
72054;BMP280;59918;51.280;7.950;2022-07-18T06:40:08;98757.69;;;19.31
72054;BMP280;59918;51.280;7.950;2022-07-18T06:42:34;98768.22;;;19.68
72054;BMP280;59918;51.280;7.950;2022-07-18T06:44:59;98762.13;;;19.95
72054;BMP280;59918;51.280;7.950;2022-07-18T06:47:24;98753.66;;;20.26
72054;BMP280;59918;51.280;7.950;2022-07-18T06:49:49;98748.75;;;20.50
72054;BMP280;59918;51.280;7.950;2022-07-18T06:52:15;98752.94;;;20.73
72054;BMP280;59918;51.280;7.950;2022-07-18T06:54:40;98751.28;;;20.88
72054;BMP280;59918;51.280;7.950;2022-07-18T06:57:08;98751.38;;;20.98
72054;BMP280;59918;51.280;7.950;2022-07-18T06:59:33;98748.41;;;21.16
72054;BMP280;59918;51.280;7.950;2022-07-18T07:01:59;98749.34;;;21.31
72054;BMP280;59918;51.280;7.950;2022-07-18T07:04:24;98747.38;;;21.43
72054;BMP280;59918;51.280;7.950;2022-07-18T07:06:49;98749.06;;;21.59
72054;BMP280;59918;51.280;7.950;2022-07-18T07:09:14;98741.59;;;21.72
72054;BMP280;59918;51.280;7.950;2022-07-18T07:11:39;98745.28;;;21.81
72054;BMP280;59918;51.280;7.950;2022-07-18T07:14:05;98740.66;;;21.88
72054;BMP280;59918;51.280;7.950;2022-07-18T07:16:30;98744.88;;;21.94
72054;BMP280;59918;51.280;7.950;2022-07-18T07:18:55;98745.22;;;22.07
72054;BMP280;59918;51.280;7.950;2022-07-18T07:21:20;98752.38;;;22.21
72054;BMP280;59918;51.280;7.950;2022-07-18T07:23:48;98742.72;;;22.32
72054;BMP280;59918;51.280;7.950;2022-07-18T07:26:13;98755.09;;;22.41
72054;BMP280;59918;51.280;7.950;2022-07-18T07:28:38;98747.28;;;22.51
72054;BMP280;59918;51.280;7.950;2022-07-18T07:31:04;98751.50;;;22.62
72054;BMP280;59918;51.280;7.950;2022-07-18T07:33:29;98752.81;;;22.69
72054;BMP280;59918;51.280;7.950;2022-07-18T07:35:54;98757.31;;;22.73
72054;BMP280;59918;51.280;7.950;2022-07-18T07:38:19;98749.44;;;22.78
72054;BMP280;59918;51.280;7.950;2022-07-18T07:40:46;98743.16;;;22.84
72054;BMP280;59918;51.280;7.950;2022-07-18T07:43:13;98737.97;;;22.94
72054;BMP280;59918;51.280;7.950;2022-07-18T07:45:39;98745.34;;;23.07
72054;BMP280;59918;51.280;7.950;2022-07-18T07:48:06;98744.31;;;23.23
72054;BMP280;59918;51.280;7.950;2022-07-18T07:50:32;98749.59;;;23.38
72054;BMP280;59918;51.280;7.950;2022-07-18T07:52:58;98739.84;;;23.53
72054;BMP280;59918;51.280;7.950;2022-07-18T07:55:23;98743.28;;;23.68
72054;BMP280;59918;51.280;7.950;2022-07-18T07:57:49;98730.94;;;23.83
72054;BMP280;59918;51.280;7.950;2022-07-18T08:00:17;98733.00;;;23.96
72054;BMP280;59918;51.280;7.950;2022-07-18T08:03:00;98729.56;;;24.11
72054;BMP280;59918;51.280;7.950;2022-07-18T08:05:27;98722.97;;;24.18
72054;BMP280;59918;51.280;7.950;2022-07-18T08:07:53;98732.63;;;24.37
72054;BMP280;59918;51.280;7.950;2022-07-18T08:10:18;98723.66;;;24.48
72054;BMP280;59918;51.280;7.950;2022-07-18T08:12:44;98722.53;;;24.59
72054;BMP280;59918;51.280;7.950;2022-07-18T08:15:09;98717.19;;;24.74
72054;BMP280;59918;51.280;7.950;2022-07-18T08:17:35;98713.75;;;24.83
72054;BMP280;59918;51.280;7.950;2022-07-18T08:20:00;98720.25;;;24.95
72054;BMP280;59918;51.280;7.950;2022-07-18T08:22:25;98717.28;;;25.07
72054;BMP280;59918;51.280;7.950;2022-07-18T08:24:50;98711.19;;;25.11
72054;BMP280;59918;51.280;7.950;2022-07-18T08:27:16;98718.72;;;25.28
72054;BMP280;59918;51.280;7.950;2022-07-18T08:29:41;98710.19;;;25.40
72054;BMP280;59918;51.280;7.950;2022-07-18T08:32:06;98711.38;;;25.53
72054;BMP280;59918;51.280;7.950;2022-07-18T08:34:32;98714.00;;;25.58
72054;BMP280;59918;51.280;7.950;2022-07-18T08:39:22;98716.38;;;25.82
72054;BMP280;59918;51.280;7.950;2022-07-18T08:41:49;98713.88;;;25.96
72054;BMP280;59918;51.280;7.950;2022-07-18T08:44:15;98711.09;;;26.10
72054;BMP280;59918;51.280;7.950;2022-07-18T08:46:47;98705.16;;;26.23
72054;BMP280;59918;51.280;7.950;2022-07-18T08:51:39;98709.75;;;26.54
72054;BMP280;59918;51.280;7.950;2022-07-18T08:54:04;98712.47;;;26.49
72054;BMP280;59918;51.280;7.950;2022-07-18T08:56:30;98708.22;;;26.53
72054;BMP280;59918;51.280;7.950;2022-07-18T08:58:55;98703.84;;;26.62
72054;BMP280;59918;51.280;7.950;2022-07-18T09:01:20;98706.25;;;26.82
72054;BMP280;59918;51.280;7.950;2022-07-18T09:03:46;98711.53;;;27.00
72054;BMP280;59918;51.280;7.950;2022-07-18T09:06:13;98717.06;;;27.17
72054;BMP280;59918;51.280;7.950;2022-07-18T09:08:57;98709.78;;;27.27
72054;BMP280;59918;51.280;7.950;2022-07-18T09:11:23;98693.81;;;27.51
72054;BMP280;59918;51.280;7.950;2022-07-18T09:13:48;98699.13;;;27.64
72054;BMP280;59918;51.280;7.950;2022-07-18T09:16:14;98700.22;;;27.63
72054;BMP280;59918;51.280;7.950;2022-07-18T09:18:42;98690.44;;;27.63
72054;BMP280;59918;51.280;7.950;2022-07-18T09:21:10;98685.16;;;27.77
72054;BMP280;59918;51.280;7.950;2022-07-18T09:23:38;98687.44;;;27.96
72054;BMP280;59918;51.280;7.950;2022-07-18T09:26:04;98679.41;;;28.01
72054;BMP280;59918;51.280;7.950;2022-07-18T09:28:49;98682.66;;;28.12
72054;BMP280;59918;51.280;7.950;2022-07-18T09:31:20;98690.09;;;28.23
72054;BMP280;59918;51.280;7.950;2022-07-18T09:34:11;98681.63;;;28.48
72054;BMP280;59918;51.280;7.950;2022-07-18T09:36:53;98682.38;;;28.75
72054;BMP280;59918;51.280;7.950;2022-07-18T09:39:19;98683.06;;;29.02
72054;BMP280;59918;51.280;7.950;2022-07-18T09:41:45;98680.03;;;29.30
72054;BMP280;59918;51.280;7.950;2022-07-18T09:44:19;98680.03;;;29.60
72054;BMP280;59918;51.280;7.950;2022-07-18T09:47:03;98678.44;;;29.81
72054;BMP280;59918;51.280;7.950;2022-07-18T09:49:33;98675.50;;;29.82
72054;BMP280;59918;51.280;7.950;2022-07-18T09:52:09;98680.66;;;29.87
72054;BMP280;59918;51.280;7.950;2022-07-18T09:54:42;98673.34;;;29.93
72054;BMP280;59918;51.280;7.950;2022-07-18T09:57:07;98683.97;;;30.01
72054;BMP280;59918;51.280;7.950;2022-07-18T09:59:35;98670.59;;;30.14
72054;BMP280;59918;51.280;7.950;2022-07-18T10:02:00;98666.94;;;30.32
72054;BMP280;59918;51.280;7.950;2022-07-18T10:04:26;98667.44;;;30.59
72054;BMP280;59918;51.280;7.950;2022-07-18T10:06:51;98663.44;;;30.79
72054;BMP280;59918;51.280;7.950;2022-07-18T10:09:17;98660.91;;;31.07
72054;BMP280;59918;51.280;7.950;2022-07-18T10:11:42;98645.50;;;31.55
72054;BMP280;59918;51.280;7.950;2022-07-18T10:14:08;98649.53;;;32.06
72054;BMP280;59918;51.280;7.950;2022-07-18T10:16:33;98643.91;;;32.56
72054;BMP280;59918;51.280;7.950;2022-07-18T10:18:59;98639.47;;;32.80
72054;BMP280;59918;51.280;7.950;2022-07-18T10:21:27;98638.34;;;32.90
72054;BMP280;59918;51.280;7.950;2022-07-18T10:23:53;98639.09;;;33.22
72054;BMP280;59918;51.280;7.950;2022-07-18T10:26:22;98647.72;;;33.40
72054;BMP280;59918;51.280;7.950;2022-07-18T10:33:49;98646.56;;;33.73
72054;BMP280;59918;51.280;7.950;2022-07-18T10:36:15;98637.22;;;34.14
72054;BMP280;59918;51.280;7.950;2022-07-18T10:41:28;98621.88;;;34.86
72054;BMP280;59918;51.280;7.950;2022-07-18T11:16:07;98599.06;;;38.08
72054;BMP280;59918;51.280;7.950;2022-07-18T11:18:36;98589.22;;;39.13
72054;BMP280;59918;51.280;7.950;2022-07-18T11:21:22;98581.63;;;39.62
72054;BMP280;59918;51.280;7.950;2022-07-18T11:23:52;98581.19;;;40.06
72054;BMP280;59918;51.280;7.950;2022-07-18T11:26:23;98575.81;;;40.10
72054;BMP280;59918;51.280;7.950;2022-07-18T11:28:56;98570.66;;;40.55
72054;BMP280;59918;51.280;7.950;2022-07-18T11:31:22;98585.66;;;40.52
72054;BMP280;59918;51.280;7.950;2022-07-18T11:33:49;98572.50;;;39.77
72054;BMP280;59918;51.280;7.950;2022-07-18T11:36:19;98578.53;;;40.13
72054;BMP280;59918;51.280;7.950;2022-07-18T11:38:56;98562.97;;;40.60
72054;BMP280;59918;51.280;7.950;2022-07-18T11:41:22;98564.31;;;41.35
72054;BMP280;59918;51.280;7.950;2022-07-18T11:43:49;98548.06;;;41.97
72054;BMP280;59918;51.280;7.950;2022-07-18T11:46:18;98556.16;;;42.11
72054;BMP280;59918;51.280;7.950;2022-07-18T11:48:46;98553.84;;;42.16
72054;BMP280;59918;51.280;7.950;2022-07-18T11:51:13;98544.13;;;42.43
72054;BMP280;59918;51.280;7.950;2022-07-18T11:53:46;98543.16;;;42.81
72054;BMP280;59918;51.280;7.950;2022-07-18T11:56:13;98536.16;;;43.37
72054;BMP280;59918;51.280;7.950;2022-07-18T11:58:40;98539.41;;;43.22
72054;BMP280;59918;51.280;7.950;2022-07-18T12:03:51;98521.38;;;43.48
72054;BMP280;59918;51.280;7.950;2022-07-18T12:06:21;98523.72;;;43.46
72054;BMP280;59918;51.280;7.950;2022-07-18T12:08:54;98532.47;;;43.17
72054;BMP280;59918;51.280;7.950;2022-07-18T12:11:34;98515.94;;;43.01
72054;BMP280;59918;51.280;7.950;2022-07-18T12:16:45;98511.88;;;44.43
72054;BMP280;59918;51.280;7.950;2022-07-18T12:19:15;98503.75;;;44.43
72054;BMP280;59918;51.280;7.950;2022-07-18T12:27:16;98502.03;;;45.76
72054;BMP280;59918;51.280;7.950;2022-07-18T12:30:16;98489.91;;;46.54
72054;BMP280;59918;51.280;7.950;2022-07-18T12:32:54;98487.44;;;46.95
72054;BMP280;59918;51.280;7.950;2022-07-18T12:35:21;98489.91;;;47.21
72054;BMP280;59918;51.280;7.950;2022-07-18T12:38:01;98479.06;;;47.65
72054;BMP280;59918;51.280;7.950;2022-07-18T12:43:21;98480.91;;;47.24
72054;BMP280;59918;51.280;7.950;2022-07-18T12:45:47;98484.00;;;47.54
72054;BMP280;59918;51.280;7.950;2022-07-18T12:48:13;98480.63;;;47.78
72054;BMP280;59918;51.280;7.950;2022-07-18T12:50:39;98482.91;;;47.51
72054;BMP280;59918;51.280;7.950;2022-07-18T12:53:05;98480.69;;;47.46
72054;BMP280;59918;51.280;7.950;2022-07-18T12:55:31;98476.16;;;48.12
72054;BMP280;59918;51.280;7.950;2022-07-18T12:57:56;98465.53;;;49.04
72054;BMP280;59918;51.280;7.950;2022-07-18T13:00:22;98472.94;;;49.49
72054;BMP280;59918;51.280;7.950;2022-07-18T13:02:47;98463.94;;;49.82
72054;BMP280;59918;51.280;7.950;2022-07-18T13:05:13;98460.34;;;50.67
72054;BMP280;59918;51.280;7.950;2022-07-18T13:07:38;98466.13;;;51.17
72054;BMP280;59918;51.280;7.950;2022-07-18T13:10:04;98466.22;;;51.04
72054;BMP280;59918;51.280;7.950;2022-07-18T13:12:32;98467.13;;;50.92
72054;BMP280;59918;51.280;7.950;2022-07-18T13:14:57;98468.19;;;50.26
72054;BMP280;59918;51.280;7.950;2022-07-18T13:17:23;98459.50;;;50.87
72054;BMP280;59918;51.280;7.950;2022-07-18T13:19:48;98451.81;;;51.75
72054;BMP280;59918;51.280;7.950;2022-07-18T13:22:13;98441.06;;;52.62
72054;BMP280;59918;51.280;7.950;2022-07-18T13:24:39;98438.03;;;53.30
72054;BMP280;59918;51.280;7.950;2022-07-18T13:27:04;98436.91;;;53.88
72054;BMP280;59918;51.280;7.950;2022-07-18T13:29:30;98438.56;;;54.23
72054;BMP280;59918;51.280;7.950;2022-07-18T13:31:55;98432.13;;;54.60
72054;BMP280;59918;51.280;7.950;2022-07-18T13:34:23;98435.69;;;53.89
72054;BMP280;59918;51.280;7.950;2022-07-18T13:36:50;98448.19;;;52.77
72054;BMP280;59918;51.280;7.950;2022-07-18T13:39:16;98436.13;;;52.34
72054;BMP280;59918;51.280;7.950;2022-07-18T13:41:41;98433.94;;;52.56
72054;BMP280;59918;51.280;7.950;2022-07-18T13:44:06;98429.81;;;52.19
72054;BMP280;59918;51.280;7.950;2022-07-18T13:46:32;98433.84;;;51.74
72054;BMP280;59918;51.280;7.950;2022-07-18T13:48:57;98417.28;;;52.91
72054;BMP280;59918;51.280;7.950;2022-07-18T13:51:22;98412.16;;;54.17
72054;BMP280;59918;51.280;7.950;2022-07-18T13:53:47;98417.28;;;55.11
72054;BMP280;59918;51.280;7.950;2022-07-18T13:56:13;98416.53;;;55.76
72054;BMP280;59918;51.280;7.950;2022-07-18T13:58:38;98420.56;;;54.76
72054;BMP280;59918;51.280;7.950;2022-07-18T14:01:04;98427.72;;;53.62
72054;BMP280;59918;51.280;7.950;2022-07-18T14:03:29;98412.09;;;53.31
72054;BMP280;59918;51.280;7.950;2022-07-18T14:05:54;98412.25;;;53.65
72054;BMP280;59918;51.280;7.950;2022-07-18T14:08:19;98420.13;;;51.92
72054;BMP280;59918;51.280;7.950;2022-07-18T14:10:45;98429.81;;;48.98
72054;BMP280;59918;51.280;7.950;2022-07-18T14:13:10;98424.13;;;47.94
72054;BMP280;59918;51.280;7.950;2022-07-18T14:15:35;98416.66;;;48.72
72054;BMP280;59918;51.280;7.950;2022-07-18T14:18:00;98408.41;;;50.15
72054;BMP280;59918;51.280;7.950;2022-07-18T14:20:26;98408.38;;;50.45
72054;BMP280;59918;51.280;7.950;2022-07-18T14:22:51;98409.72;;;49.81
72054;BMP280;59918;51.280;7.950;2022-07-18T14:25:17;98410.66;;;50.08
72054;BMP280;59918;51.280;7.950;2022-07-18T14:27:43;98400.09;;;51.32
72054;BMP280;59918;51.280;7.950;2022-07-18T14:30:11;98396.00;;;52.04
72054;BMP280;59918;51.280;7.950;2022-07-18T14:32:36;98385.63;;;52.49
72054;BMP280;59918;51.280;7.950;2022-07-18T14:35:03;98403.44;;;53.00
72054;BMP280;59918;51.280;7.950;2022-07-18T14:37:29;98390.28;;;53.13
72054;BMP280;59918;51.280;7.950;2022-07-18T14:39:54;98389.53;;;53.27
72054;BMP280;59918;51.280;7.950;2022-07-18T14:42:20;98397.59;;;52.61
72054;BMP280;59918;51.280;7.950;2022-07-18T14:44:45;98389.59;;;52.95
72054;BMP280;59918;51.280;7.950;2022-07-18T14:47:10;98386.00;;;53.12
72054;BMP280;59918;51.280;7.950;2022-07-18T14:49:35;98386.53;;;53.39
72054;BMP280;59918;51.280;7.950;2022-07-18T14:52:01;98389.88;;;54.49
72054;BMP280;59918;51.280;7.950;2022-07-18T14:54:29;98379.22;;;55.35
72054;BMP280;59918;51.280;7.950;2022-07-18T14:56:54;98380.78;;;56.22
72054;BMP280;59918;51.280;7.950;2022-07-18T14:59:20;98389.03;;;57.05
72054;BMP280;59918;51.280;7.950;2022-07-18T15:01:46;98376.09;;;56.81
72054;BMP280;59918;51.280;7.950;2022-07-18T15:04:12;98386.50;;;57.02
72054;BMP280;59918;51.280;7.950;2022-07-18T15:06:37;98378.63;;;56.32
72054;BMP280;59918;51.280;7.950;2022-07-18T15:09:03;98377.44;;;56.44
72054;BMP280;59918;51.280;7.950;2022-07-18T15:11:28;98380.16;;;56.38
72054;BMP280;59918;51.280;7.950;2022-07-18T15:13:55;98382.44;;;56.45